Terminal Aerodrome Forecast
Issued by NWS Twin Cities, MN

Home | Current Version | Previous Version | Graphics & Text | Print | Product List | Glossary On
Versions: 1 2 3 4 5 6 7 8 9 10 11 12 13 14 15 16 17 18 19 20 21 22 23 24
262
FTUS43 KMPX 192048 AAA
TAFMSP
TAF AMD
KMSP 192048Z 1921/2024 06012G18KT P6SM OVC120
     FM192300 06010KT P6SM OVC080
     FM201200 06012G20KT 5SM -RA BR OVC025
     FM201500 06012G20KT 4SM RA BR OVC008=

USA.gov is the U.S. government's official web portal to all federal, state and local government web resources and services.